createdAt,value
2018-04-28T00:01:40.824Z,11.53
2018-04-28T00:04:09.343Z,9.70
2018-04-28T00:06:37.694Z,8.53
2018-04-28T00:09:06.013Z,10.00
2018-04-28T00:11:34.314Z,11.20
2018-04-28T00:14:02.640Z,10.73
2018-04-28T00:19:26.458Z,8.63
2018-04-28T00:22:08.185Z,9.13
2018-04-28T00:24:39.131Z,9.50
2018-04-28T00:27:12.117Z,11.43
2018-04-28T00:29:44.882Z,12.33
2018-04-28T00:32:13.241Z,8.23
2018-04-28T00:37:51.111Z,11.97
2018-04-28T00:40:26.283Z,7.87
2018-04-28T00:42:55.528Z,8.43
2018-04-28T00:48:31.153Z,8.70
2018-04-28T00:51:16.360Z,6.63
2018-04-28T00:53:44.631Z,7.00
2018-04-28T00:56:16.398Z,6.07
2018-04-28T00:58:47.304Z,8.77
2018-04-28T01:04:19.133Z,11.87
2018-04-28T01:06:47.610Z,8.57
2018-04-28T01:09:15.860Z,8.83
2018-04-28T01:11:45.111Z,6.80
2018-04-28T01:14:14.264Z,7.97
2018-04-28T01:16:51.018Z,7.40
2018-04-28T01:19:26.847Z,11.90
2018-04-28T01:22:01.013Z,6.87
2018-04-28T01:27:51.731Z,5.13
2018-04-28T01:30:20.975Z,9.30
2018-04-28T01:33:01.283Z,8.80
2018-04-28T01:35:31.475Z,6.10
2018-04-28T01:38:05.616Z,11.50
2018-04-28T01:40:33.922Z,7.30
2018-04-28T01:43:14.012Z,6.23
2018-04-28T01:45:46.900Z,7.23
2018-04-28T01:48:21.116Z,6.00
2018-04-28T01:50:56.164Z,6.60
2018-04-28T01:53:25.270Z,6.10
2018-04-28T01:56:11.044Z,6.13
2018-04-28T01:58:40.190Z,7.73
2018-04-28T02:01:12.386Z,7.57
2018-04-28T02:03:43.562Z,5.77
2018-04-28T02:06:19.635Z,5.97
2018-04-28T02:08:48.681Z,7.17
2018-04-28T02:11:22.975Z,6.90
2018-04-28T02:13:58.753Z,9.33
2018-04-28T02:16:32.682Z,6.03
2018-04-28T02:19:07.596Z,5.60
2018-04-28T02:21:43.480Z,8.17
2018-04-28T02:24:11.790Z,5.63
2018-04-28T02:26:44.724Z,5.70
2018-04-28T02:29:13.845Z,8.43
2018-04-28T02:34:41.196Z,6.70
2018-04-28T02:40:27.877Z,7.67
2018-04-28T02:45:53.289Z,7.20
2018-04-28T02:48:32.940Z,7.50
2018-04-28T02:53:58.105Z,9.23
2018-04-28T02:56:29.212Z,5.50
2018-04-28T02:59:00.015Z,7.27
2018-04-28T03:01:28.341Z,5.63
2018-04-28T03:06:58.438Z,6.90
2018-04-28T03:09:28.153Z,7.87
2018-04-28T03:11:56.498Z,6.47
2018-04-28T03:14:24.808Z,6.50
2018-04-28T03:16:56.071Z,5.40
2018-04-28T03:19:24.374Z,8.13
2018-04-28T03:21:54.624Z,5.43
2018-04-28T03:27:30.751Z,8.40
2018-04-28T03:30:12.487Z,7.83
2018-04-28T03:32:42.606Z,5.10
2018-04-28T03:35:17.827Z,10.17
2018-04-28T03:37:47.844Z,6.97
2018-04-28T03:40:36.642Z,4.40
2018-04-28T03:49:01.418Z,5.07
2018-04-28T03:51:34.218Z,5.77
2018-04-28T03:54:04.385Z,7.83
2018-04-28T03:56:36.191Z,6.33
2018-04-28T03:59:16.387Z,5.60
2018-04-28T04:01:56.556Z,6.50
2018-04-28T04:07:42.374Z,4.87
2018-04-28T04:10:14.032Z,4.27
2018-04-28T04:12:45.838Z,5.17
2018-04-28T04:18:32.707Z,6.27
2018-04-28T04:21:12.663Z,4.90
2018-04-28T04:26:44.111Z,5.77
2018-04-28T04:29:22.285Z,5.23
2018-04-28T04:32:00.253Z,6.07
2018-04-28T04:37:32.283Z,4.57
2018-04-28T04:40:05.939Z,7.33
2018-04-28T04:42:37.975Z,11.43
2018-04-28T04:45:08.221Z,7.93
2018-04-28T04:50:46.081Z,10.73
2018-04-28T04:53:18.962Z,4.80
2018-04-28T04:59:01.074Z,6.77
2018-04-28T05:01:31.932Z,7.80
2018-04-28T05:07:03.983Z,10.63
2018-04-28T05:09:45.110Z,6.43
2018-04-28T05:15:44.282Z,4.97
2018-04-28T05:18:24.440Z,6.53
2018-04-28T05:20:59.296Z,9.03
2018-04-28T05:26:43.845Z,4.40
2018-04-28T05:29:20.736Z,11.23
2018-04-28T05:35:28.990Z,4.00
2018-04-28T05:38:14.067Z,7.40
2018-04-28T05:43:46.703Z,9.67
2018-04-28T05:46:15.029Z,5.03
2018-04-28T05:51:47.684Z,6.47
2018-04-28T05:54:27.732Z,8.57
2018-04-28T05:57:06.885Z,9.37
2018-04-28T06:02:56.047Z,5.53
2018-04-28T06:05:33.813Z,8.80
2018-04-28T06:11:13.645Z,4.80
2018-04-28T06:13:53.896Z,5.90
2018-04-28T06:19:45.743Z,4.50
2018-04-28T06:22:14.067Z,5.10
2018-04-28T06:24:42.379Z,4.80
2018-04-28T06:27:10.697Z,3.50
2018-04-28T06:29:39.027Z,7.93
2018-04-28T06:32:07.363Z,5.27
2018-04-28T06:34:35.676Z,7.47
2018-04-28T06:37:04.023Z,6.40
2018-04-28T06:39:32.517Z,5.50
2018-04-28T06:42:00.824Z,7.73
2018-04-28T06:44:29.170Z,4.53
2018-04-28T06:46:57.480Z,4.73
2018-04-28T06:49:25.776Z,4.83
2018-04-28T06:51:54.109Z,5.87
2018-04-28T06:54:22.431Z,3.90
2018-04-28T06:56:50.744Z,5.47
2018-04-28T06:59:19.053Z,6.77
2018-04-28T07:01:47.409Z,3.50
2018-04-28T07:04:15.754Z,3.13
2018-04-28T07:06:44.075Z,3.50
2018-04-28T07:09:12.404Z,5.17
2018-04-28T07:11:40.794Z,4.43
2018-04-28T07:14:09.104Z,4.77
2018-04-28T07:16:37.568Z,5.60
2018-04-28T07:19:05.908Z,6.50
2018-04-28T07:21:34.216Z,4.77
2018-04-28T07:24:02.602Z,8.87
2018-04-28T07:26:30.941Z,8.73
2018-04-28T07:28:59.257Z,5.10
2018-04-28T07:31:27.750Z,4.50
2018-04-28T07:33:56.071Z,7.30
2018-04-28T07:36:24.372Z,5.13
2018-04-28T07:38:52.691Z,5.53
2018-04-28T07:41:21.012Z,6.87
2018-04-28T07:43:49.324Z,7.40
2018-04-28T07:46:17.706Z,10.43
2018-04-28T07:48:46.122Z,5.20
2018-04-28T07:51:14.447Z,4.70
2018-04-28T07:53:42.738Z,3.17
2018-04-28T07:56:11.179Z,4.07
2018-04-28T07:58:39.559Z,5.50
2018-04-28T08:01:07.883Z,4.33
2018-04-28T08:03:36.194Z,4.90
2018-04-28T08:06:04.545Z,6.57
2018-04-28T08:08:32.867Z,6.23
2018-04-28T08:11:01.212Z,4.57
2018-04-28T08:13:33.035Z,3.90
2018-04-28T08:16:01.422Z,6.90
2018-04-28T08:18:29.796Z,4.53
2018-04-28T08:20:58.124Z,4.60
2018-04-28T08:23:26.421Z,5.23
2018-04-28T08:25:55.168Z,8.90
2018-04-28T08:28:23.484Z,2.70
2018-04-28T08:30:51.902Z,2.73
2018-04-28T08:33:20.242Z,4.13
2018-04-28T08:35:48.689Z,4.13
2018-04-28T08:38:16.995Z,3.40
2018-04-28T08:40:45.317Z,5.77
2018-04-28T08:43:13.667Z,6.33
2018-04-28T08:45:41.968Z,5.30
2018-04-28T08:48:10.534Z,5.20
2018-04-28T08:50:38.655Z,4.57
2018-04-28T08:53:06.962Z,3.80
2018-04-28T08:55:35.281Z,5.23
2018-04-28T08:58:03.682Z,4.30
2018-04-28T09:00:32.001Z,4.20
2018-04-28T09:03:00.308Z,2.33
2018-04-28T09:05:28.619Z,4.77
2018-04-28T09:07:56.959Z,3.40
2018-04-28T09:10:25.332Z,2.73
2018-04-28T09:12:53.716Z,3.07
2018-04-28T09:15:22.004Z,5.00
2018-04-28T09:17:50.364Z,4.03
2018-04-28T09:20:18.661Z,2.83
2018-04-28T09:22:46.989Z,2.30
2018-04-28T09:25:15.943Z,6.00
2018-04-28T09:27:44.293Z,4.70
2018-04-28T09:30:12.606Z,3.00
2018-04-28T09:32:40.916Z,3.73
2018-04-28T09:35:09.251Z,7.50
2018-04-28T09:37:37.571Z,3.50
2018-04-28T09:40:06.036Z,2.73
2018-04-28T09:42:34.343Z,4.37
2018-04-28T09:45:02.705Z,5.10
2018-04-28T09:47:31.025Z,4.93
2018-04-28T09:49:59.417Z,4.57
2018-04-28T09:52:27.710Z,4.13
2018-04-28T09:54:56.028Z,5.40
2018-04-28T09:57:24.336Z,8.13
2018-04-28T09:59:52.668Z,6.20
2018-04-28T10:02:20.966Z,4.03
2018-04-28T10:04:49.278Z,5.23
2018-04-28T10:07:17.634Z,3.70
2018-04-28T10:09:45.959Z,3.70
2018-04-28T10:12:14.272Z,4.13
2018-04-28T10:14:42.666Z,3.17
2018-04-28T10:17:11.219Z,4.57
2018-04-28T10:19:42.115Z,3.57
2018-04-28T10:22:10.430Z,8.20
2018-04-28T10:24:38.740Z,2.90
2018-04-28T10:27:07.105Z,9.40
2018-04-28T10:29:35.408Z,4.87
2018-04-28T10:32:03.752Z,2.87
2018-04-28T10:34:32.098Z,3.13
2018-04-28T10:37:00.427Z,4.33
2018-04-28T10:39:28.735Z,5.77
2018-04-28T10:41:57.044Z,5.37
2018-04-28T10:44:25.359Z,3.63
2018-04-28T10:46:53.681Z,3.03
2018-04-28T10:49:21.984Z,4.77
2018-04-28T10:51:50.301Z,4.13
2018-04-28T10:54:18.648Z,4.90
2018-04-28T10:56:46.982Z,3.30
2018-04-28T10:59:15.351Z,3.53
2018-04-28T11:01:43.697Z,3.77
2018-04-28T11:04:18.040Z,3.67
2018-04-28T11:06:55.040Z,2.93
2018-04-28T11:09:23.549Z,2.97
2018-04-28T11:11:52.124Z,6.17
2018-04-28T11:14:20.569Z,5.13
2018-04-28T11:16:48.928Z,2.53
2018-04-28T11:19:17.224Z,4.60
2018-04-28T11:21:45.543Z,2.43
2018-04-28T11:24:13.859Z,3.77
2018-04-28T11:26:42.223Z,4.13
2018-04-28T11:29:10.577Z,4.43
2018-04-28T11:31:40.349Z,2.73
2018-04-28T11:34:09.590Z,5.63
2018-04-28T11:36:37.948Z,5.73
2018-04-28T11:39:06.352Z,3.77
2018-04-28T11:41:34.693Z,5.63
2018-04-28T11:44:03.003Z,7.03
2018-04-28T11:46:31.327Z,2.57
2018-04-28T11:48:59.641Z,4.63
2018-04-28T11:51:27.956Z,4.18
2018-04-28T11:53:56.413Z,4.82
2018-04-28T11:56:24.719Z,2.97
2018-04-28T11:58:53.151Z,4.55
2018-04-28T12:01:21.368Z,2.85
2018-04-28T12:03:49.688Z,5.18
2018-04-28T12:06:18.023Z,4.57
2018-04-28T12:08:46.333Z,3.22
2018-04-28T12:11:14.651Z,3.77
2018-04-28T12:13:42.975Z,4.93
2018-04-28T12:16:11.303Z,4.80
2018-04-28T12:18:39.698Z,6.53
2018-04-28T12:21:08.105Z,3.90
2018-04-28T12:23:36.381Z,5.27
2018-04-28T12:26:04.742Z,5.83
2018-04-28T12:28:33.072Z,6.50
2018-04-28T12:31:01.457Z,6.23
2018-04-28T12:33:29.781Z,4.20
2018-04-28T12:35:58.172Z,3.47
2018-04-28T12:38:26.463Z,3.50
2018-04-28T12:40:56.783Z,4.87
2018-04-28T12:43:25.259Z,3.03
2018-04-28T12:45:53.570Z,3.70
2018-04-28T12:48:21.891Z,5.43
2018-04-28T12:50:50.256Z,3.57
2018-04-28T12:53:19.332Z,4.33
2018-04-28T12:55:47.713Z,2.37
2018-04-28T12:58:16.015Z,4.90
2018-04-28T13:00:44.339Z,2.93
2018-04-28T13:03:12.671Z,5.63
2018-04-28T13:05:40.987Z,5.33
2018-04-28T13:08:09.308Z,3.90
2018-04-28T13:10:37.645Z,5.97
2018-04-28T13:13:05.989Z,3.00
2018-04-28T13:15:34.409Z,3.30
2018-04-28T13:18:11.215Z,4.30
2018-04-28T13:20:39.498Z,5.77
2018-04-28T13:23:07.836Z,4.87
2018-04-28T13:25:36.149Z,5.00
2018-04-28T13:28:04.494Z,5.18
2018-04-28T13:30:32.810Z,4.40
2018-04-28T13:33:01.183Z,9.10
2018-04-28T13:35:29.521Z,6.15
2018-04-28T13:37:57.855Z,3.53
2018-04-28T13:40:26.171Z,4.85
2018-04-28T13:42:54.478Z,5.65
2018-04-28T13:45:22.803Z,5.37
2018-04-28T13:47:51.108Z,2.58
2018-04-28T13:50:19.428Z,3.05
2018-04-28T13:52:47.759Z,3.95
2018-04-28T13:55:16.079Z,7.50
2018-04-28T13:57:44.369Z,5.73
2018-04-28T14:00:12.693Z,7.20
2018-04-28T14:02:41.007Z,7.17
2018-04-28T14:05:09.360Z,5.53
2018-04-28T14:07:37.659Z,4.10
2018-04-28T14:10:06.012Z,4.72
2018-04-28T14:12:34.315Z,5.12
2018-04-28T14:15:02.646Z,6.32
2018-04-28T14:17:31.022Z,4.60
2018-04-28T14:19:59.316Z,5.40
2018-04-28T14:22:27.629Z,3.95
2018-04-28T14:24:55.940Z,4.70
2018-04-28T14:27:24.268Z,4.60
2018-04-28T14:29:52.917Z,3.70
2018-04-28T14:32:21.228Z,5.30
2018-04-28T14:34:51.898Z,8.30
2018-04-28T14:37:20.208Z,6.67
2018-04-28T14:39:48.514Z,4.77
2018-04-28T14:42:16.828Z,5.22
2018-04-28T14:44:45.234Z,7.00
2018-04-28T14:47:13.545Z,4.37
2018-04-28T14:49:41.854Z,4.05
2018-04-28T14:52:10.190Z,6.27
2018-04-28T14:54:38.496Z,6.50
2018-04-28T14:57:06.892Z,3.70
2018-04-28T14:59:35.132Z,6.57
2018-04-28T15:02:03.470Z,9.53
2018-04-28T15:04:31.780Z,8.97
2018-04-28T15:07:00.135Z,4.50
2018-04-28T15:09:28.450Z,5.67
2018-04-28T15:11:56.756Z,3.00
2018-04-28T15:14:25.063Z,6.23
2018-04-28T15:16:53.368Z,6.00
2018-04-28T15:19:21.686Z,4.10
2018-04-28T15:21:49.990Z,6.57
2018-04-28T15:24:30.045Z,3.87
2018-04-28T15:26:58.360Z,3.57
2018-04-28T15:29:26.679Z,16.47
2018-04-28T15:31:54.996Z,4.47
2018-04-28T15:34:23.346Z,2.90
2018-04-28T15:36:51.650Z,3.63
2018-04-28T15:39:19.971Z,5.57
2018-04-28T15:41:48.279Z,2.47
2018-04-28T15:44:16.612Z,9.90
2018-04-28T15:46:44.915Z,10.60
2018-04-28T15:49:13.254Z,6.07
2018-04-28T15:51:41.569Z,4.20
2018-04-28T15:54:09.887Z,6.17
2018-04-28T15:56:38.195Z,5.63
2018-04-28T15:59:06.544Z,9.17
2018-04-28T16:01:34.905Z,5.80
2018-04-28T16:04:03.224Z,3.13
2018-04-28T16:06:31.545Z,4.03
2018-04-28T16:08:59.886Z,11.13
2018-04-28T16:11:28.203Z,5.07
2018-04-28T16:13:56.507Z,4.97
2018-04-28T16:16:24.836Z,4.43
2018-04-28T16:18:53.153Z,6.80
2018-04-28T16:21:21.468Z,3.90
2018-04-28T16:23:49.788Z,30.93
2018-04-28T16:26:18.122Z,6.30
2018-04-28T16:28:46.443Z,5.27
2018-04-28T16:31:14.776Z,7.43
2018-04-28T16:33:43.092Z,8.90
2018-04-28T16:36:11.417Z,5.87
2018-04-28T16:38:39.732Z,4.13
2018-04-28T16:41:08.055Z,5.83
2018-04-28T16:43:36.397Z,5.90
2018-04-28T16:46:04.722Z,7.53
2018-04-28T16:48:33.035Z,7.73
2018-04-28T16:51:01.427Z,5.53
2018-04-28T16:53:29.710Z,3.97
2018-04-28T16:55:58.037Z,8.47
2018-04-28T16:58:26.330Z,5.47
2018-04-28T17:00:54.652Z,5.47
2018-04-28T17:03:22.981Z,4.90
2018-04-28T17:05:51.279Z,5.37
2018-04-28T17:08:19.594Z,9.03
2018-04-28T17:10:47.939Z,4.33
2018-04-28T17:13:16.282Z,7.23
2018-04-28T17:15:44.638Z,4.03
2018-04-28T17:18:12.950Z,3.70
2018-04-28T17:20:41.360Z,12.17
2018-04-28T17:23:09.691Z,9.57
2018-04-28T17:25:37.997Z,8.83
2018-04-28T17:28:06.342Z,6.47
2018-04-28T17:30:34.828Z,6.47
2018-04-28T17:33:03.975Z,5.83
2018-04-28T17:35:32.418Z,7.33
2018-04-28T17:38:00.812Z,7.90
2018-04-28T17:40:29.117Z,7.50
2018-04-28T17:42:57.466Z,17.37
2018-04-28T17:45:25.776Z,9.30
2018-04-28T17:47:54.110Z,10.27
2018-04-28T17:50:24.045Z,8.60
2018-04-28T17:52:52.649Z,8.93
2018-04-28T17:55:20.961Z,10.27
2018-04-28T17:57:49.276Z,12.83
2018-04-28T18:00:17.646Z,16.03
2018-04-28T18:02:46.331Z,17.00
2018-04-28T18:05:14.678Z,15.27
2018-04-28T18:07:44.663Z,15.07
2018-04-28T18:10:13.181Z,15.07
2018-04-28T18:12:41.505Z,17.13
2018-04-28T18:15:09.835Z,14.03
2018-04-28T18:17:38.322Z,8.27
2018-04-28T18:20:06.656Z,8.77
2018-04-28T18:22:35.295Z,8.37
2018-04-28T18:25:03.713Z,10.53
2018-04-28T18:27:32.040Z,8.70
2018-04-28T18:30:00.344Z,10.63
2018-04-28T18:32:28.675Z,11.90
2018-04-28T18:34:56.998Z,16.83
2018-04-28T18:37:25.340Z,12.83
2018-04-28T18:39:53.655Z,20.87
2018-04-28T18:42:21.981Z,35.83
2018-04-28T18:44:50.299Z,16.80
2018-04-28T18:47:18.661Z,7.70
2018-04-28T18:49:47.000Z,11.40
2018-04-28T18:52:17.667Z,10.10
2018-04-28T18:54:46.065Z,15.00
2018-04-28T18:57:14.408Z,23.63
2018-04-28T18:59:42.738Z,23.50
2018-04-28T19:02:11.080Z,30.00
2018-04-28T19:04:39.416Z,30.43
2018-04-28T19:07:07.781Z,23.93
2018-04-28T19:09:36.109Z,39.47
2018-04-28T19:12:04.461Z,32.47
2018-04-28T19:14:32.796Z,21.93
2018-04-28T19:17:01.148Z,18.93
2018-04-28T19:19:29.479Z,14.93
2018-04-28T19:21:57.800Z,12.73
2018-04-28T19:24:26.167Z,14.10
2018-04-28T19:26:54.485Z,17.00
2018-04-28T19:29:23.160Z,16.37
2018-04-28T19:31:51.517Z,14.93
2018-04-28T19:34:19.844Z,15.87
2018-04-28T19:36:48.176Z,14.80
2018-04-28T19:39:16.557Z,15.47
2018-04-28T19:41:44.892Z,15.67
2018-04-28T19:44:13.261Z,19.87
2018-04-28T19:46:41.588Z,23.00
2018-04-28T19:49:09.933Z,17.47
2018-04-28T19:51:38.270Z,16.07
2018-04-28T19:54:06.617Z,19.83
2018-04-28T19:56:35.040Z,13.67
2018-04-28T19:59:03.368Z,13.30
2018-04-28T20:01:31.699Z,12.60
2018-04-28T20:04:00.064Z,14.33
2018-04-28T20:06:28.376Z,13.13
2018-04-28T20:08:56.731Z,14.27
2018-04-28T20:11:25.080Z,17.03
2018-04-28T20:13:53.398Z,14.50
2018-04-28T20:16:21.758Z,15.27
2018-04-28T20:18:50.044Z,18.20
2018-04-28T20:21:18.386Z,26.00
2018-04-28T20:23:58.366Z,15.33
2018-04-28T20:26:26.720Z,18.13
2018-04-28T20:28:55.039Z,14.53
2018-04-28T20:31:23.480Z,12.73
2018-04-28T20:33:51.809Z,15.50
2018-04-28T20:36:20.138Z,11.37
2018-04-28T20:38:48.538Z,12.77
2018-04-28T20:41:16.798Z,14.60
2018-04-28T20:43:45.172Z,17.33
2018-04-28T20:46:13.484Z,11.30
2018-04-28T20:48:41.796Z,10.73
2018-04-28T20:51:10.126Z,14.17
2018-04-28T20:53:38.449Z,13.87
2018-04-28T20:56:06.788Z,12.97
2018-04-28T20:58:35.110Z,18.10
2018-04-28T21:01:03.447Z,14.40
2018-04-28T21:03:31.794Z,16.03
2018-04-28T21:06:00.137Z,16.97
2018-04-28T21:08:28.642Z,12.03
2018-04-28T21:10:57.028Z,14.47
2018-04-28T21:13:25.569Z,14.37
2018-04-28T21:15:53.888Z,19.40
2018-04-28T21:18:22.292Z,18.80
2018-04-28T21:20:50.616Z,32.60
2018-04-28T21:23:18.954Z,44.97
2018-04-28T21:25:47.274Z,36.80
2018-04-28T21:28:15.656Z,35.37
2018-04-28T21:30:43.996Z,23.67
2018-04-28T21:33:12.346Z,21.47
2018-04-28T21:35:40.725Z,19.63
2018-04-28T21:38:09.050Z,21.10
2018-04-28T21:40:37.364Z,19.47
2018-04-28T21:43:05.690Z,17.40
2018-04-28T21:45:34.013Z,18.87
2018-04-28T21:48:09.331Z,15.70
2018-04-28T21:50:37.676Z,16.63
2018-04-28T21:53:05.986Z,15.30
2018-04-28T21:55:34.317Z,17.63
2018-04-28T21:58:02.670Z,17.77
2018-04-28T22:00:31.018Z,18.70
2018-04-28T22:02:59.392Z,19.40
2018-04-28T22:05:27.714Z,17.07
2018-04-28T22:07:56.032Z,19.00
2018-04-28T22:10:24.400Z,18.30
2018-04-28T22:12:52.722Z,16.67
2018-04-28T22:15:21.042Z,20.33
2018-04-28T22:17:49.368Z,15.97
2018-04-28T22:20:17.716Z,17.03
2018-04-28T22:22:46.040Z,18.77
2018-04-28T22:25:14.363Z,20.90
2018-04-28T22:27:42.693Z,19.20
2018-04-28T22:30:11.008Z,17.87
2018-04-28T22:32:39.351Z,18.67
2018-04-28T22:35:07.676Z,22.37
2018-04-28T22:37:36.010Z,21.07
2018-04-28T22:40:04.324Z,21.43
2018-04-28T22:42:32.654Z,21.53
2018-04-28T22:45:00.979Z,19.70
2018-04-28T22:47:29.357Z,18.80
2018-04-28T22:49:57.670Z,18.30
2018-04-28T22:52:26.099Z,17.80
2018-04-28T22:54:54.339Z,17.93
2018-04-28T22:57:22.701Z,19.37
2018-04-28T22:59:51.031Z,18.47
2018-04-28T23:02:19.384Z,24.63
2018-04-28T23:04:47.693Z,18.73
2018-04-28T23:07:16.067Z,17.03
2018-04-28T23:09:44.399Z,24.40
2018-04-28T23:12:12.714Z,19.77
2018-04-28T23:14:41.059Z,21.93
2018-04-28T23:17:09.377Z,23.13
2018-04-28T23:19:37.703Z,25.43
2018-04-28T23:22:06.022Z,34.03
2018-04-28T23:24:34.359Z,32.50
2018-04-28T23:27:02.681Z,33.20
2018-04-28T23:29:31.024Z,27.50
2018-04-28T23:31:59.345Z,44.87
2018-04-28T23:34:27.705Z,39.83
2018-04-28T23:36:56.055Z,44.07
2018-04-28T23:39:24.378Z,41.07
2018-04-28T23:41:52.682Z,41.87
2018-04-28T23:44:21.040Z,47.87
2018-04-28T23:46:49.401Z,37.43
2018-04-28T23:49:17.716Z,41.13
2018-04-28T23:51:46.031Z,37.30
2018-04-28T23:54:14.364Z,27.10
2018-04-28T23:56:42.716Z,22.33
2018-04-28T23:59:11.025Z,22.37
